createdAt,value
2022-11-09T00:00:23.031Z,81.41
2022-11-09T00:00:57.707Z,81.64
2022-11-09T00:01:30.652Z,81.35
2022-11-09T00:02:05.649Z,81.39
2022-11-09T00:02:42.885Z,81.10
2022-11-09T00:03:16.281Z,80.89
2022-11-09T00:03:51.393Z,80.84
2022-11-09T00:04:23.778Z,80.76
2022-11-09T00:04:55.882Z,80.89
2022-11-09T00:05:30.572Z,81.07
2022-11-09T00:06:02.636Z,80.87
2022-11-09T00:06:38.691Z,80.42
2022-11-09T00:07:13.461Z,80.43
2022-11-09T00:07:45.604Z,80.55
2022-11-09T00:08:20.327Z,80.43
2022-11-09T00:08:53.041Z,80.29
2022-11-09T00:09:27.968Z,80.50
2022-11-09T00:10:00.187Z,80.14
2022-11-09T00:10:32.777Z,80.32
2022-11-09T00:11:09.233Z,80.42
2022-11-09T00:11:41.315Z,80.01
2022-11-09T00:12:13.582Z,80.02
2022-11-09T00:12:48.251Z,79.82
2022-11-09T00:13:20.764Z,80.22
2022-11-09T00:13:53.533Z,80.20
2022-11-09T00:14:28.390Z,79.88
2022-11-09T00:15:00.454Z,79.80
2022-11-09T00:15:32.681Z,79.88
2022-11-09T00:16:08.321Z,79.98
2022-11-09T00:16:40.456Z,79.64
2022-11-09T00:17:12.570Z,79.75
2022-11-09T00:17:47.293Z,79.97
2022-11-09T00:18:19.370Z,79.66
2022-11-09T00:18:54.049Z,79.68
2022-11-09T00:19:26.462Z,79.49
2022-11-09T00:19:58.572Z,79.58
2022-11-09T00:20:33.237Z,79.75
2022-11-09T00:21:09.741Z,79.57
2022-11-09T00:21:41.873Z,79.46
2022-11-09T00:22:19.110Z,79.34
2022-11-09T00:22:51.201Z,79.05
2022-11-09T00:23:23.798Z,79.23
2022-11-09T00:23:59.535Z,79.33
2022-11-09T00:24:31.693Z,79.30
2022-11-09T00:25:04.095Z,78.93
2022-11-09T00:25:38.789Z,79.39
2022-11-09T00:26:13.104Z,79.32
2022-11-09T00:26:47.859Z,79.33
2022-11-09T00:27:19.948Z,79.08
2022-11-09T00:27:52.781Z,79.24
2022-11-09T00:28:27.450Z,79.18
2022-11-09T00:29:00.022Z,79.19
2022-11-09T00:29:32.179Z,78.88
2022-11-09T00:30:07.795Z,78.88
2022-11-09T00:30:39.925Z,79.15
2022-11-09T00:31:13.752Z,79.11
2022-11-09T00:31:48.820Z,79.08
2022-11-09T00:32:25.248Z,78.98
2022-11-09T00:32:59.702Z,79.04
2022-11-09T00:33:32.293Z,78.70
2022-11-09T00:34:06.983Z,78.59
2022-11-09T00:34:39.641Z,78.40
2022-11-09T00:35:11.895Z,78.85
2022-11-09T00:35:46.578Z,78.82
2022-11-09T00:36:19.909Z,78.72
2022-11-09T00:36:52.018Z,78.85
2022-11-09T00:37:29.414Z,78.73
2022-11-09T00:38:01.680Z,78.50
2022-11-09T00:38:34.002Z,78.86
2022-11-09T00:39:08.703Z,78.71
2022-11-09T00:39:40.888Z,78.45
2022-11-09T00:40:13.509Z,78.69
2022-11-09T00:40:48.261Z,78.79
2022-11-09T00:41:21.128Z,78.51
2022-11-09T00:41:55.792Z,78.65
2022-11-09T00:42:27.924Z,78.56
2022-11-09T00:43:00.081Z,78.39
2022-11-09T00:43:35.584Z,78.52
2022-11-09T00:44:08.004Z,78.86
2022-11-09T00:44:40.221Z,78.80
2022-11-09T00:45:16.690Z,78.80
2022-11-09T00:45:48.883Z,78.43
2022-11-09T00:46:21.635Z,78.78
2022-11-09T00:46:58.659Z,78.57
2022-11-09T00:47:30.771Z,78.82
2022-11-09T00:48:04.134Z,78.32
2022-11-09T00:48:39.076Z,78.73
2022-11-09T00:49:11.183Z,78.46
2022-11-09T00:49:43.270Z,78.31
2022-11-09T00:50:18.459Z,78.35
2022-11-09T00:50:51.121Z,78.33
2022-11-09T00:51:25.934Z,78.12
2022-11-09T00:51:58.123Z,78.22
2022-11-09T00:52:32.814Z,77.93
2022-11-09T00:53:07.581Z,78.12
2022-11-09T00:53:39.969Z,78.31
2022-11-09T00:54:12.522Z,78.20
2022-11-09T00:54:47.477Z,77.79
2022-11-09T00:55:21.227Z,78.11
2022-11-09T00:55:57.254Z,77.76
2022-11-09T00:56:32.121Z,77.73
2022-11-09T00:57:04.369Z,77.98
2022-11-09T00:57:36.506Z,77.73
2022-11-09T00:58:11.859Z,77.90
2022-11-09T00:58:43.934Z,77.88
2022-11-09T00:59:18.829Z,77.65
2022-11-09T00:59:53.863Z,78.08
2022-11-09T01:00:26.035Z,77.79
2022-11-09T01:01:03.018Z,77.81
2022-11-09T01:01:35.327Z,78.07
2022-11-09T01:02:07.525Z,77.91
2022-11-09T01:02:42.324Z,77.66
2022-11-09T01:03:14.546Z,77.87
2022-11-09T01:03:47.966Z,77.69
2022-11-09T01:04:22.739Z,77.87
2022-11-09T01:04:54.904Z,77.91
2022-11-09T01:05:27.131Z,77.74
2022-11-09T01:06:03.085Z,77.68
2022-11-09T01:06:35.471Z,77.75
2022-11-09T01:07:11.275Z,77.94
2022-11-09T01:07:46.011Z,77.89
2022-11-09T01:08:18.358Z,77.83
2022-11-09T01:08:54.504Z,77.62
2022-11-09T01:09:26.628Z,77.80
2022-11-09T01:10:00.043Z,77.44
2022-11-09T01:10:34.965Z,77.77
2022-11-09T01:11:08.851Z,77.81
2022-11-09T01:11:43.578Z,77.78
2022-11-09T01:12:15.664Z,77.20
2022-11-09T01:12:48.058Z,77.64
2022-11-09T01:13:23.207Z,77.50
2022-11-09T01:13:55.623Z,77.36
2022-11-09T01:14:27.724Z,77.50
2022-11-09T01:15:02.657Z,77.51
2022-11-09T01:15:34.943Z,77.47
2022-11-09T01:16:13.053Z,76.97
2022-11-09T01:16:45.360Z,76.95
2022-11-09T01:17:17.472Z,77.22
2022-11-09T01:17:52.388Z,77.29
2022-11-09T01:18:24.705Z,77.06
2022-11-09T01:18:59.564Z,77.06
2022-11-09T01:19:34.254Z,77.26
2022-11-09T01:20:07.877Z,77.17
2022-11-09T01:20:43.703Z,76.97
2022-11-09T01:21:18.805Z,76.80
2022-11-09T01:21:50.914Z,77.18
2022-11-09T01:22:23.019Z,77.24
2022-11-09T01:23:00.261Z,76.69
2022-11-09T01:23:35.712Z,77.15
2022-11-09T01:24:07.901Z,76.98
2022-11-09T01:24:42.583Z,76.72
2022-11-09T01:25:15.621Z,76.72
2022-11-09T01:25:47.778Z,76.71
2022-11-09T01:26:22.753Z,77.11
2022-11-09T01:26:56.580Z,76.95
2022-11-09T01:27:28.654Z,76.66
2022-11-09T01:28:03.754Z,76.78
2022-11-09T01:28:36.559Z,76.96
2022-11-09T01:29:11.768Z,76.78
2022-11-09T01:29:43.892Z,76.96
2022-11-09T01:30:16.405Z,77.24
2022-11-09T01:30:48.579Z,76.91
2022-11-09T01:31:24.708Z,76.74
2022-11-09T01:31:56.869Z,76.87
2022-11-09T01:32:32.263Z,76.79
2022-11-09T01:33:07.081Z,77.01
2022-11-09T01:33:39.690Z,76.80
2022-11-09T01:34:14.583Z,76.78
2022-11-09T01:34:46.658Z,76.98
2022-11-09T01:35:18.788Z,77.06
2022-11-09T01:35:53.512Z,76.75
2022-11-09T01:36:25.837Z,77.06
2022-11-09T01:36:57.909Z,76.71
2022-11-09T01:37:32.578Z,77.13
2022-11-09T01:38:08.813Z,77.14
2022-11-09T01:38:41.506Z,77.02
2022-11-09T01:39:16.747Z,77.17
2022-11-09T01:39:48.813Z,76.88
2022-11-09T01:40:20.969Z,77.00
2022-11-09T01:40:55.714Z,76.76
2022-11-09T01:41:29.263Z,77.07
2022-11-09T01:42:01.361Z,76.77
2022-11-09T01:42:39.830Z,77.00
2022-11-09T01:43:16.725Z,77.19
2022-11-09T01:44:08.176Z,77.36
2022-11-09T01:44:44.250Z,77.06
2022-11-09T01:45:26.745Z,77.10
2022-11-09T01:46:06.420Z,77.09
2022-11-09T01:46:48.947Z,76.94
2022-11-09T01:47:26.148Z,77.29
2022-11-09T01:48:03.050Z,77.18
2022-11-09T01:48:39.243Z,77.32
2022-11-09T01:49:19.021Z,77.58
2022-11-09T01:49:55.343Z,77.37
2022-11-09T01:50:33.998Z,77.55
2022-11-09T01:51:15.262Z,77.38
2022-11-09T01:51:53.234Z,77.37
2022-11-09T01:52:32.354Z,77.52
2022-11-09T01:53:11.482Z,77.65
2022-11-09T01:53:53.791Z,77.44
2022-11-09T01:54:29.254Z,77.48
2022-11-09T01:55:07.740Z,77.42
2022-11-09T01:55:42.644Z,77.74
2022-11-09T01:56:15.901Z,77.27
2022-11-09T01:56:54.517Z,77.60
2022-11-09T01:57:31.824Z,77.32
2022-11-09T01:58:10.002Z,77.59
2022-11-09T01:58:50.254Z,77.23
2022-11-09T01:59:27.691Z,77.58
2022-11-09T02:00:10.442Z,77.25
2022-11-09T02:00:48.547Z,77.57
2022-11-09T02:01:21.562Z,77.60
2022-11-09T02:01:56.956Z,77.29
2022-11-09T02:02:29.862Z,77.34
2022-11-09T02:03:05.835Z,77.69
2022-11-09T02:03:45.748Z,77.61
2022-11-09T02:04:22.808Z,77.32
2022-11-09T02:05:01.839Z,77.27
2022-11-09T02:05:39.315Z,77.55
2022-11-09T02:06:16.854Z,77.48
2022-11-09T02:06:52.996Z,77.81
2022-11-09T02:07:25.733Z,77.76
2022-11-09T02:08:01.989Z,77.43
2022-11-09T02:08:39.766Z,77.64
2022-11-09T02:09:19.230Z,77.46
2022-11-09T02:10:01.103Z,77.50
2022-11-09T02:10:42.301Z,77.62
2022-11-09T02:11:18.021Z,77.48
2022-11-09T02:11:50.878Z,77.91
2022-11-09T02:12:28.818Z,77.74
2022-11-09T02:13:02.378Z,77.75
2022-11-09T02:13:49.574Z,77.92
2022-11-09T02:14:24.933Z,77.99
2022-11-09T02:14:57.836Z,77.70
2022-11-09T02:15:34.667Z,77.84
2022-11-09T02:16:08.522Z,77.70
2022-11-09T02:16:44.628Z,77.81
2022-11-09T02:17:17.054Z,77.63
2022-11-09T02:17:52.790Z,77.46
2022-11-09T02:18:28.820Z,77.83
2022-11-09T02:19:01.436Z,77.59
2022-11-09T02:19:36.325Z,77.60
2022-11-09T02:20:13.755Z,77.57
2022-11-09T02:20:47.555Z,77.86
2022-11-09T02:21:22.716Z,77.37
2022-11-09T02:21:54.836Z,77.64
2022-11-09T02:22:29.978Z,77.42
2022-11-09T02:23:02.184Z,77.66
2022-11-09T02:23:37.160Z,77.80
2022-11-09T02:24:11.859Z,77.85
2022-11-09T02:24:44.132Z,77.75
2022-11-09T02:25:20.268Z,77.55
2022-11-09T02:25:57.451Z,77.62
2022-11-09T02:26:32.485Z,77.55
2022-11-09T02:27:09.380Z,77.36
2022-11-09T02:27:43.920Z,77.81
2022-11-09T02:28:17.603Z,77.71
2022-11-09T02:28:52.990Z,77.54
2022-11-09T02:29:32.298Z,77.58
2022-11-09T02:30:08.381Z,77.44
2022-11-09T02:30:40.869Z,77.71
2022-11-09T02:31:18.815Z,77.70
2022-11-09T02:31:55.733Z,77.60
2022-11-09T02:32:29.571Z,77.43
2022-11-09T02:33:05.842Z,77.51
2022-11-09T02:33:44.498Z,77.48
2022-11-09T02:34:21.733Z,77.32
2022-11-09T02:34:54.060Z,77.65
2022-11-09T02:35:28.803Z,77.86
2022-11-09T02:36:03.473Z,77.42
2022-11-09T02:36:35.916Z,77.81
2022-11-09T02:37:09.931Z,77.90
2022-11-09T02:37:50.180Z,77.86
2022-11-09T02:38:22.903Z,77.37
2022-11-09T02:38:58.470Z,77.42
2022-11-09T02:39:30.761Z,77.41
2022-11-09T02:40:10.264Z,77.38
2022-11-09T02:40:47.136Z,77.85
2022-11-09T02:41:21.099Z,77.76
2022-11-09T02:42:02.990Z,77.74
2022-11-09T02:42:39.036Z,77.98
2022-11-09T02:43:14.061Z,77.79
2022-11-09T02:43:48.826Z,77.90
2022-11-09T02:44:21.120Z,77.92
2022-11-09T02:44:58.372Z,77.35
2022-11-09T02:45:33.325Z,77.63
2022-11-09T02:46:05.780Z,77.29
2022-11-09T02:46:38.551Z,77.52
2022-11-09T02:47:13.216Z,77.76
2022-11-09T02:47:45.631Z,77.73
2022-11-09T02:48:20.499Z,77.68
2022-11-09T02:48:52.612Z,77.39
2022-11-09T02:49:24.713Z,77.59
2022-11-09T02:50:00.225Z,77.37
2022-11-09T02:50:37.113Z,77.45
2022-11-09T02:51:13.402Z,77.49
2022-11-09T02:51:46.534Z,77.61
2022-11-09T02:52:18.860Z,77.54
2022-11-09T02:52:53.982Z,77.24
2022-11-09T02:53:26.457Z,77.48
2022-11-09T02:53:58.916Z,77.71
2022-11-09T02:54:33.633Z,77.65
2022-11-09T02:55:06.945Z,77.69
2022-11-09T02:55:39.171Z,77.94
2022-11-09T02:56:15.411Z,77.64
2022-11-09T02:56:47.501Z,77.64
2022-11-09T02:57:19.681Z,77.60
2022-11-09T02:57:54.350Z,77.81
2022-11-09T02:58:26.573Z,77.83
2022-11-09T02:58:58.837Z,77.92
2022-11-09T02:59:34.110Z,77.90
2022-11-09T03:00:09.686Z,77.69
2022-11-09T03:00:44.636Z,78.00
2022-11-09T03:01:17.898Z,78.11
2022-11-09T03:01:50.293Z,78.10
2022-11-09T03:02:25.901Z,78.11
2022-11-09T03:02:58.181Z,78.03
2022-11-09T03:03:30.507Z,77.82
2022-11-09T03:04:05.261Z,78.22
2022-11-09T03:04:38.427Z,78.07
2022-11-09T03:05:10.949Z,77.87
2022-11-09T03:05:51.127Z,77.83
2022-11-09T03:06:34.564Z,77.99
2022-11-09T03:07:09.626Z,77.93
2022-11-09T03:07:45.393Z,77.94
2022-11-09T03:08:18.127Z,78.28
2022-11-09T03:08:53.832Z,78.34
2022-11-09T03:09:25.947Z,77.98
2022-11-09T03:09:58.110Z,78.21
2022-11-09T03:10:34.179Z,78.03
2022-11-09T03:11:07.064Z,77.85
2022-11-09T03:11:40.465Z,77.76
2022-11-09T03:12:30.317Z,78.16
2022-11-09T03:13:11.562Z,78.26
2022-11-09T03:13:43.756Z,78.27
2022-11-09T03:14:15.879Z,78.10
2022-11-09T03:14:56.646Z,78.30
2022-11-09T03:15:28.733Z,78.05
2022-11-09T03:16:04.657Z,78.01
2022-11-09T03:16:39.950Z,78.28
2022-11-09T03:17:14.143Z,78.30
2022-11-09T03:17:46.225Z,78.05
2022-11-09T03:18:21.321Z,78.08
2022-11-09T03:18:53.708Z,77.80
2022-11-09T03:19:27.240Z,78.38
2022-11-09T03:19:59.444Z,78.05
2022-11-09T03:20:35.097Z,78.28
2022-11-09T03:21:10.530Z,78.02
2022-11-09T03:21:42.614Z,78.31
2022-11-09T03:22:17.347Z,78.23
2022-11-09T03:22:51.056Z,78.17
2022-11-09T03:23:26.194Z,78.12
2022-11-09T03:23:58.511Z,78.18
2022-11-09T03:24:30.657Z,78.13
2022-11-09T03:25:06.108Z,77.96
2022-11-09T03:25:38.713Z,78.38
2022-11-09T03:26:10.886Z,77.85
2022-11-09T03:26:45.842Z,78.05
2022-11-09T03:27:18.099Z,78.18
2022-11-09T03:27:57.896Z,78.06
2022-11-09T03:28:32.796Z,78.12
2022-11-09T03:29:04.954Z,78.00
2022-11-09T03:29:37.246Z,77.98
2022-11-09T03:30:13.309Z,78.01
2022-11-09T03:30:47.303Z,78.07
2022-11-09T03:31:19.433Z,78.26
2022-11-09T03:31:56.274Z,78.19
2022-11-09T03:32:28.483Z,78.24
2022-11-09T03:33:02.253Z,77.76
2022-11-09T03:33:37.080Z,77.76
2022-11-09T03:34:09.404Z,77.96
2022-11-09T03:34:41.547Z,78.01
2022-11-09T03:35:16.749Z,78.20
2022-11-09T03:35:49.003Z,77.95
2022-11-09T03:36:26.021Z,77.88
2022-11-09T03:37:00.941Z,77.87
2022-11-09T03:37:33.103Z,77.92
2022-11-09T03:38:07.881Z,77.75
2022-11-09T03:38:41.078Z,77.66
2022-11-09T03:39:13.187Z,77.98
2022-11-09T03:39:47.886Z,77.99
2022-11-09T03:40:21.049Z,77.92
2022-11-09T03:40:56.129Z,78.17
2022-11-09T03:41:31.251Z,78.14
2022-11-09T03:42:03.502Z,78.00
2022-11-09T03:42:35.601Z,78.18
2022-11-09T03:43:10.390Z,77.80
2022-11-09T03:43:43.600Z,78.07
2022-11-09T03:44:16.087Z,78.17
2022-11-09T03:44:50.768Z,78.07
2022-11-09T03:45:22.906Z,78.10
2022-11-09T03:45:55.415Z,78.15
2022-11-09T03:46:30.114Z,78.11
2022-11-09T03:47:02.234Z,78.05
2022-11-09T03:47:34.316Z,77.87
2022-11-09T03:48:09.335Z,78.11
2022-11-09T03:48:41.413Z,78.04
2022-11-09T03:49:13.610Z,78.15
2022-11-09T03:49:48.364Z,78.31
2022-11-09T03:50:20.460Z,78.31
2022-11-09T03:50:52.563Z,78.08
2022-11-09T03:51:29.857Z,78.24
2022-11-09T03:52:01.951Z,78.26
2022-11-09T03:52:34.235Z,77.99
2022-11-09T03:53:09.652Z,78.06
2022-11-09T03:53:41.957Z,78.17
2022-11-09T03:54:14.102Z,78.03
2022-11-09T03:54:48.834Z,77.91
2022-11-09T03:55:20.938Z,78.37
2022-11-09T03:55:53.038Z,78.28
2022-11-09T03:56:25.306Z,78.17
2022-11-09T03:56:59.988Z,78.17
2022-11-09T03:57:32.257Z,78.20
2022-11-09T03:58:04.768Z,78.53
2022-11-09T03:58:39.510Z,78.27
2022-11-09T03:59:11.696Z,78.52
2022-11-09T03:59:43.802Z,78.36
2022-11-09T04:00:21.630Z,78.41
2022-11-09T04:00:54.893Z,78.31
2022-11-09T04:01:27.066Z,78.69
2022-11-09T04:02:01.862Z,78.27
2022-11-09T04:02:34.055Z,78.72
2022-11-09T04:03:06.140Z,78.51
2022-11-09T04:03:41.102Z,78.62
2022-11-09T04:04:13.226Z,78.60
2022-11-09T04:04:45.504Z,78.86
2022-11-09T04:05:20.745Z,78.94
2022-11-09T04:05:52.918Z,78.73
2022-11-09T04:06:30.235Z,79.15
2022-11-09T04:07:02.449Z,78.62
2022-11-09T04:07:34.637Z,78.92
2022-11-09T04:08:09.349Z,78.79
2022-11-09T04:08:42.368Z,78.61
2022-11-09T04:09:16.767Z,78.67
2022-11-09T04:09:51.472Z,78.98
2022-11-09T04:10:25.341Z,78.92
2022-11-09T04:10:57.630Z,78.92
2022-11-09T04:11:32.325Z,78.75
2022-11-09T04:12:05.540Z,78.96
2022-11-09T04:12:37.623Z,78.80
2022-11-09T04:13:09.861Z,78.74
2022-11-09T04:13:44.570Z,78.86
2022-11-09T04:14:16.653Z,78.82
2022-11-09T04:14:48.744Z,78.92
2022-11-09T04:15:23.888Z,78.76
2022-11-09T04:15:56.711Z,78.59
2022-11-09T04:16:28.835Z,78.64
2022-11-09T04:17:03.556Z,78.63
2022-11-09T04:17:35.677Z,78.50
2022-11-09T04:18:12.070Z,78.49
2022-11-09T04:18:44.165Z,78.43
2022-11-09T04:19:16.247Z,78.88
2022-11-09T04:19:50.989Z,78.42
2022-11-09T04:20:23.133Z,78.46
2022-11-09T04:20:57.651Z,78.53
2022-11-09T04:21:35.679Z,78.67
2022-11-09T04:22:07.839Z,78.73
2022-11-09T04:22:39.960Z,78.59
2022-11-09T04:23:15.999Z,79.01
2022-11-09T04:23:48.669Z,78.89
2022-11-09T04:24:20.800Z,78.84
2022-11-09T04:24:55.569Z,78.56
2022-11-09T04:25:29.209Z,78.50
2022-11-09T04:26:01.347Z,78.69
2022-11-09T04:26:36.116Z,78.89
2022-11-09T04:27:08.232Z,78.60
2022-11-09T04:27:40.381Z,78.56
2022-11-09T04:28:15.492Z,78.95
2022-11-09T04:28:47.639Z,78.81
2022-11-09T04:29:19.721Z,78.52
2022-11-09T04:29:54.500Z,78.93
2022-11-09T04:30:28.307Z,78.88
2022-11-09T04:31:04.320Z,78.77
2022-11-09T04:31:36.420Z,78.60
2022-11-09T04:32:08.501Z,78.87
2022-11-09T04:32:43.177Z,79.02
2022-11-09T04:33:15.400Z,78.94
2022-11-09T04:33:52.608Z,78.76
2022-11-09T04:34:24.728Z,78.79
2022-11-09T04:34:56.812Z,79.01
2022-11-09T04:35:32.917Z,78.86
2022-11-09T04:36:05.684Z,78.89
2022-11-09T04:36:42.968Z,79.15
2022-11-09T04:37:17.713Z,79.20
2022-11-09T04:37:56.326Z,79.18
2022-11-09T04:38:30.998Z,78.88
2022-11-09T04:39:03.088Z,79.22
2022-11-09T04:39:35.201Z,79.32
2022-11-09T04:40:11.217Z,79.41
2022-11-09T04:40:43.338Z,79.33
2022-11-09T04:41:15.511Z,79.24
2022-11-09T04:41:50.205Z,78.99
2022-11-09T04:42:22.312Z,79.08
2022-11-09T04:42:54.490Z,79.47
2022-11-09T04:43:29.189Z,79.53
2022-11-09T04:44:01.261Z,79.46
2022-11-09T04:44:33.336Z,79.53
2022-11-09T04:45:09.154Z,79.43
2022-11-09T04:45:41.295Z,79.56
2022-11-09T04:46:13.407Z,79.36
2022-11-09T04:46:48.125Z,79.31
2022-11-09T04:47:20.206Z,79.56
2022-11-09T04:47:52.445Z,79.35
2022-11-09T04:48:27.109Z,79.52
2022-11-09T04:48:59.220Z,79.38
2022-11-09T04:49:31.369Z,79.39
2022-11-09T04:50:06.450Z,79.60
2022-11-09T04:50:38.633Z,79.36
2022-11-09T04:51:13.877Z,79.20
2022-11-09T04:51:48.693Z,79.38
2022-11-09T04:52:20.762Z,79.59
2022-11-09T04:52:55.513Z,79.13
2022-11-09T04:53:28.269Z,79.67
2022-11-09T04:54:02.953Z,79.47
2022-11-09T04:54:35.071Z,79.56
2022-11-09T04:55:08.599Z,79.62
2022-11-09T04:55:44.311Z,79.39
2022-11-09T04:56:16.443Z,79.65
2022-11-09T04:56:48.606Z,79.43
2022-11-09T04:57:23.291Z,79.34
2022-11-09T04:57:55.399Z,79.68
2022-11-09T04:58:27.568Z,79.47
2022-11-09T04:59:02.271Z,79.35
2022-11-09T04:59:34.367Z,79.63
2022-11-09T05:00:07.621Z,79.25
2022-11-09T05:00:42.298Z,79.22
2022-11-09T05:01:15.209Z,79.33
2022-11-09T05:01:47.310Z,79.57
2022-11-09T05:02:22.187Z,79.59
2022-11-09T05:02:54.255Z,79.51
2022-11-09T05:03:26.371Z,79.30
2022-11-09T05:04:01.197Z,79.27
2022-11-09T05:04:33.688Z,79.17
2022-11-09T05:05:07.066Z,79.26
2022-11-09T05:05:48.005Z,79.25
2022-11-09T05:06:32.611Z,79.21
2022-11-09T05:07:07.583Z,79.29
2022-11-09T05:07:42.456Z,79.23
2022-11-09T05:08:14.628Z,79.08
2022-11-09T05:08:46.794Z,79.54
2022-11-09T05:09:21.511Z,79.30
2022-11-09T05:09:53.689Z,79.21
2022-11-09T05:10:25.794Z,79.45
2022-11-09T05:11:00.682Z,79.34
2022-11-09T05:11:33.688Z,79.12
2022-11-09T05:12:06.475Z,78.92
2022-11-09T05:12:42.239Z,79.35
2022-11-09T05:13:20.046Z,79.10
2022-11-09T05:13:52.698Z,79.22
2022-11-09T05:14:24.894Z,79.27
2022-11-09T05:14:59.562Z,79.03
2022-11-09T05:15:33.067Z,79.03
2022-11-09T05:16:05.814Z,79.36
2022-11-09T05:16:41.053Z,79.00
2022-11-09T05:17:13.185Z,79.20
2022-11-09T05:17:45.252Z,79.42
2022-11-09T05:18:19.975Z,79.37
2022-11-09T05:18:52.468Z,78.88
2022-11-09T05:19:24.602Z,79.37
2022-11-09T05:19:59.284Z,79.15
2022-11-09T05:20:32.024Z,79.18
2022-11-09T05:21:04.687Z,79.13
2022-11-09T05:21:39.448Z,79.11
2022-11-09T05:22:34.793Z,79.37
2022-11-09T05:23:22.595Z,79.26
2022-11-09T05:24:01.048Z,79.33
2022-11-09T05:24:33.385Z,79.14
2022-11-09T05:25:06.652Z,79.47
2022-11-09T05:25:41.512Z,79.11
2022-11-09T05:26:13.712Z,79.19
2022-11-09T05:26:45.920Z,79.37
2022-11-09T05:27:20.718Z,79.30
2022-11-09T05:27:53.230Z,79.18
2022-11-09T05:28:25.432Z,79.39
2022-11-09T05:29:00.590Z,79.25
2022-11-09T05:29:32.729Z,79.30
2022-11-09T05:30:06.223Z,79.36
2022-11-09T05:30:41.150Z,79.29
2022-11-09T05:31:13.834Z,79.11
2022-11-09T05:31:52.254Z,79.34
2022-11-09T05:32:24.691Z,79.23
2022-11-09T05:32:57.001Z,79.17
2022-11-09T05:33:31.813Z,79.16
2022-11-09T05:34:05.725Z,79.34
2022-11-09T05:34:37.996Z,79.17
2022-11-09T05:35:13.033Z,79.21
2022-11-09T05:35:45.139Z,79.17
2022-11-09T05:36:18.139Z,78.98
2022-11-09T05:36:52.950Z,79.13
2022-11-09T05:37:27.699Z,78.88
2022-11-09T05:37:59.952Z,79.02
2022-11-09T05:38:35.589Z,78.82
2022-11-09T05:39:07.936Z,79.14
2022-11-09T05:39:40.098Z,78.76
2022-11-09T05:40:14.912Z,79.03
2022-11-09T05:40:48.280Z,79.11
2022-11-09T05:41:20.815Z,78.93
2022-11-09T05:41:55.640Z,78.97
2022-11-09T05:42:27.807Z,79.00
2022-11-09T05:42:59.889Z,79.18
2022-11-09T05:43:34.570Z,78.91
2022-11-09T05:44:06.952Z,78.68
2022-11-09T05:44:39.096Z,78.89
2022-11-09T05:45:41.044Z,78.89
2022-11-09T05:46:08.550Z,79.20
2022-11-09T05:46:43.295Z,78.70
2022-11-09T05:47:15.415Z,78.69
2022-11-09T05:47:47.608Z,79.07
2022-11-09T05:48:22.289Z,78.65
2022-11-09T05:48:54.421Z,78.58
2022-11-09T05:49:26.584Z,78.75
2022-11-09T05:50:01.260Z,78.60
2022-11-09T05:50:33.748Z,78.58
2022-11-09T05:51:25.924Z,79.15
2022-11-09T05:51:58.138Z,78.98
2022-11-09T05:52:32.996Z,79.24
2022-11-09T05:53:05.270Z,78.82
2022-11-09T05:53:45.167Z,78.90
2022-11-09T05:54:18.323Z,79.30
2022-11-09T05:54:50.478Z,79.16
2022-11-09T05:55:25.170Z,78.91
2022-11-09T05:56:01.324Z,79.09
2022-11-09T05:56:36.048Z,78.72
2022-11-09T05:57:08.140Z,78.79
2022-11-09T05:57:40.274Z,78.99
2022-11-09T05:58:15.062Z,79.14
2022-11-09T05:58:47.316Z,78.68
2022-11-09T05:59:19.387Z,78.75
2022-11-09T05:59:54.076Z,78.55
2022-11-09T06:00:26.794Z,78.46
2022-11-09T06:00:59.983Z,78.73
2022-11-09T06:01:34.798Z,78.38
2022-11-09T06:02:06.960Z,78.62
2022-11-09T06:02:39.168Z,78.67
2022-11-09T06:03:14.608Z,78.66
2022-11-09T06:03:46.697Z,78.39
2022-11-09T06:04:21.425Z,78.43
2022-11-09T06:04:53.588Z,78.60
2022-11-09T06:05:28.318Z,78.28
2022-11-09T06:06:07.855Z,78.59
2022-11-09T06:06:43.297Z,78.53
2022-11-09T06:07:15.882Z,78.28
2022-11-09T06:07:50.645Z,78.75
2022-11-09T06:08:25.399Z,78.24
2022-11-09T06:08:57.489Z,78.60
2022-11-09T06:09:32.210Z,78.57
2022-11-09T06:10:06.092Z,78.25
2022-11-09T06:10:38.789Z,78.47
2022-11-09T06:11:21.825Z,78.36
2022-11-09T06:11:55.853Z,78.55
2022-11-09T06:12:30.569Z,78.38
2022-11-09T06:13:03.025Z,78.34
2022-11-09T06:13:35.526Z,78.59
2022-11-09T06:14:10.284Z,78.20
2022-11-09T06:14:42.387Z,78.39
2022-11-09T06:15:14.676Z,78.14
2022-11-09T06:15:56.029Z,78.27
2022-11-09T06:16:28.282Z,78.28
2022-11-09T06:17:00.438Z,78.47
2022-11-09T06:17:35.124Z,78.73
2022-11-09T06:18:07.264Z,78.60
2022-11-09T06:18:39.461Z,78.06
2022-11-09T06:19:14.193Z,78.10
2022-11-09T06:19:46.283Z,78.43
2022-11-09T06:20:18.546Z,78.29
2022-11-09T06:20:55.028Z,78.13
2022-11-09T06:21:27.238Z,78.04
2022-11-09T06:21:59.372Z,77.74
2022-11-09T06:22:34.040Z,78.10
2022-11-09T06:23:09.318Z,78.00
2022-11-09T06:23:44.151Z,77.80
2022-11-09T06:24:16.295Z,77.81
2022-11-09T06:24:48.414Z,77.74
2022-11-09T06:25:23.189Z,77.55
2022-11-09T06:25:58.151Z,77.48
2022-11-09T06:26:30.273Z,77.86
2022-11-09T06:27:05.137Z,77.60
2022-11-09T06:27:37.403Z,77.75
2022-11-09T06:28:09.732Z,77.48
2022-11-09T06:28:44.990Z,77.43
2022-11-09T06:29:17.060Z,77.47
2022-11-09T06:29:49.211Z,77.54
2022-11-09T06:30:24.324Z,77.54
2022-11-09T06:30:57.728Z,78.01
2022-11-09T06:31:32.489Z,77.50
2022-11-09T06:32:04.927Z,77.84
2022-11-09T06:32:37.096Z,77.67
2022-11-09T06:33:11.891Z,77.61
2022-11-09T06:33:44.217Z,77.56
2022-11-09T06:34:18.961Z,77.38
2022-11-09T06:34:51.053Z,77.61
2022-11-09T06:35:23.240Z,77.37
2022-11-09T06:35:59.696Z,77.28
2022-11-09T06:36:31.770Z,77.44
2022-11-09T06:37:06.460Z,77.31
2022-11-09T06:37:38.678Z,77.72
2022-11-09T06:38:13.488Z,77.58
2022-11-09T06:38:51.478Z,77.61
2022-11-09T06:39:23.696Z,77.41
2022-11-09T06:39:55.794Z,77.52
2022-11-09T06:40:31.704Z,77.42
2022-11-09T06:41:04.134Z,77.16
2022-11-09T06:41:36.525Z,77.05
2022-11-09T06:42:11.327Z,77.15
2022-11-09T06:42:43.505Z,77.60
2022-11-09T06:43:15.599Z,77.57
2022-11-09T06:43:50.435Z,77.42
2022-11-09T06:44:22.516Z,77.15
2022-11-09T06:44:54.621Z,77.19
2022-11-09T06:45:30.377Z,77.42
2022-11-09T06:46:04.053Z,77.65
2022-11-09T06:46:36.227Z,77.67
2022-11-09T06:47:10.992Z,77.49
2022-11-09T06:47:43.113Z,77.83
2022-11-09T06:48:15.264Z,77.30
2022-11-09T06:48:54.396Z,77.44
2022-11-09T06:49:26.902Z,77.40
2022-11-09T06:50:01.566Z,77.38
2022-11-09T06:50:34.469Z,77.75
2022-11-09T06:51:10.237Z,77.69
2022-11-09T06:51:42.456Z,77.61
2022-11-09T06:52:17.301Z,77.65
2022-11-09T06:52:49.414Z,77.92
2022-11-09T06:53:27.921Z,77.54
2022-11-09T06:54:00.147Z,77.58
2022-11-09T06:54:32.795Z,77.79
2022-11-09T06:55:08.654Z,77.77
2022-11-09T06:55:45.720Z,77.95
2022-11-09T06:56:24.068Z,77.87
2022-11-09T06:56:56.182Z,77.59
2022-11-09T06:57:29.770Z,78.08
2022-11-09T06:58:08.897Z,77.79
2022-11-09T06:58:41.104Z,78.08
2022-11-09T06:59:15.940Z,77.88
2022-11-09T06:59:48.919Z,77.83
2022-11-09T07:00:24.502Z,78.08
2022-11-09T07:00:56.771Z,78.17
2022-11-09T07:01:32.315Z,77.67
2022-11-09T10:32:55.326Z,62.51
2022-11-09T10:33:28.434Z,62.89
2022-11-09T10:34:10.996Z,62.80
2022-11-09T10:34:52.700Z,63.11
2022-11-09T10:35:32.474Z,63.30
2022-11-09T10:36:12.827Z,63.06
2022-11-09T10:36:55.391Z,63.25
2022-11-09T10:37:32.594Z,63.12
2022-11-09T10:38:07.637Z,63.22
2022-11-09T10:38:45.754Z,62.91
2022-11-09T10:39:45.107Z,63.59
2022-11-09T10:40:44.160Z,63.21
2022-11-09T10:41:40.489Z,63.33
2022-11-09T10:42:33.835Z,63.12
2022-11-09T10:43:24.454Z,63.40
2022-11-09T10:44:20.019Z,62.97
2022-11-09T10:45:29.795Z,63.13
2022-11-09T10:46:23.024Z,63.28
2022-11-09T10:47:16.422Z,63.09
2022-11-09T10:48:14.821Z,63.21
2022-11-09T10:49:20.152Z,63.13
2022-11-09T10:50:25.163Z,63.21
2022-11-09T10:51:35.460Z,62.88
2022-11-09T10:52:45.895Z,62.23
2022-11-09T10:53:40.336Z,62.08
2022-11-09T10:54:33.878Z,62.29
2022-11-09T10:55:28.897Z,62.53
2022-11-09T10:56:22.050Z,62.00
2022-11-09T10:57:19.277Z,62.02
2022-11-09T10:58:25.548Z,61.96
2022-11-09T10:59:50.245Z,61.50
2022-11-09T11:00:58.186Z,62.30
2022-11-09T11:01:51.603Z,62.23
2022-11-09T11:02:46.958Z,61.71
2022-11-09T11:03:44.005Z,61.62